Time,TemperatureF,DewpointF,PressureIn,WindDirection,WindDirectionDegrees,WindSpeedMPH,WindSpeedGustMPH,Humidity,HourlyPrecipIn,Conditions,Clouds,dailyrainin,SoftwareType,DateUTC
2013-12-15 00:00:00,36.4,29.2,30.38,North,0,0.0,0.0,75,0.00,,,0.00,WUHU216HW,2013-12-15 08:00:00,
2013-12-15 00:05:00,36.7,29.9,30.39,North,0,0.0,0.0,76,0.00,,,0.00,WUHU216HW,2013-12-15 08:05:00,
2013-12-15 00:10:00,36.7,29.9,30.38,North,0,0.0,0.0,76,0.00,,,0.00,WUHU216HW,2013-12-15 08:10:00,
2013-12-15 00:15:00,36.7,29.9,30.38,North,0,0.0,0.0,76,0.00,,,0.00,WUHU216HW,2013-12-15 08:15:00,
2013-12-15 01:28:00,37.4,29.9,30.38,North,0,0.0,0.0,74,0.00,,,0.00,WUHU216HW,2013-12-15 09:28:00,
2013-12-15 01:33:00,37.4,29.6,30.37,North,0,0.0,0.0,73,0.00,,,0.00,WUHU216HW,2013-12-15 09:33:00,
2013-12-15 01:38:00,37.4,29.6,30.36,North,0,0.0,0.0,73,0.00,,,0.00,WUHU216HW,2013-12-15 09:38:00,
2013-12-15 01:43:00,37.4,29.6,30.36,North,0,0.0,0.0,73,0.00,,,0.00,WUHU216HW,2013-12-15 09:43:00,
2013-12-15 01:53:00,38.3,29.8,30.37,North,0,0.0,0.0,71,0.00,,,0.00,WUHU216HW,2013-12-15 09:53:00,
2013-12-15 01:58:00,38.5,30.0,30.37,North,0,0.0,0.0,71,0.00,,,0.00,WUHU216HW,2013-12-15 09:58:00,
2013-12-15 02:03:00,38.5,30.0,30.37,North,0,0.0,0.0,71,0.00,,,0.00,WUHU216HW,2013-12-15 10:03:00,
2013-12-15 02:08:00,38.9,29.9,30.37,North,0,0.0,0.0,70,0.00,,,0.00,WUHU216HW,2013-12-15 10:08:00,
2013-12-15 02:13:00,38.9,29.9,30.37,North,0,0.0,0.0,70,0.00,,,0.00,WUHU216HW,2013-12-15 10:13:00,
2013-12-15 02:18:00,38.9,29.9,30.37,North,0,0.0,0.0,70,0.00,,,0.00,WUHU216HW,2013-12-15 10:18:00,
2013-12-15 02:28:00,39.1,29.7,30.37,North,0,0.0,0.0,69,0.00,,,0.00,WUHU216HW,2013-12-15 10:28:00,
2013-12-15 02:33:00,38.9,29.5,30.37,North,0,0.0,0.0,69,0.00,,,0.00,WUHU216HW,2013-12-15 10:33:00,
2013-12-15 02:38:00,38.7,29.3,30.37,North,0,0.0,0.0,69,0.00,,,0.00,WUHU216HW,2013-12-15 10:38:00,
2013-12-15 02:43:00,38.7,29.3,30.37,North,0,0.0,0.0,69,0.00,,,0.00,WUHU216HW,2013-12-15 10:43:00,
2013-12-15 02:48:00,38.7,29.3,30.37,North,0,0.0,0.0,69,0.00,,,0.00,WUHU216HW,2013-12-15 10:48:00,
2013-12-15 02:56:00,38.5,29.3,30.37,North,0,0.0,0.0,69,0.00,,,0.00,WUHU216HW,2013-12-15 10:56:00,
2013-12-15 03:01:00,38.7,29.3,30.37,North,0,0.0,0.0,69,0.00,,,0.00,WUHU216HW,2013-12-15 11:01:00,
2013-12-15 03:06:00,38.7,29.3,30.37,North,0,0.0,0.0,69,0.00,,,0.00,WUHU216HW,2013-12-15 11:06:00,
2013-12-15 03:11:00,38.7,29.3,30.37,North,0,0.0,0.0,69,0.00,,,0.00,WUHU216HW,2013-12-15 11:11:00,
2013-12-15 03:16:00,38.7,29.3,30.37,North,0,0.0,0.0,69,0.00,,,0.00,WUHU216HW,2013-12-15 11:16:00,
2013-12-15 06:37:00,38.7,28.6,30.35,North,0,0.0,0.0,67,0.00,,,0.00,WUHU216HW,2013-12-15 14:37:00,
2013-12-15 06:42:00,38.7,28.6,30.35,North,0,0.0,0.0,67,0.00,,,0.00,WUHU216HW,2013-12-15 14:42:00,
2013-12-15 06:47:00,38.3,28.7,30.35,North,0,0.0,0.0,68,0.00,,,0.00,WUHU216HW,2013-12-15 14:47:00,
2013-12-15 06:52:00,38.2,28.5,30.36,North,0,0.0,0.0,68,0.00,,,0.00,WUHU216HW,2013-12-15 14:52:00,
2013-12-15 06:57:00,37.8,28.5,30.36,North,0,0.0,0.0,69,0.00,,,0.00,WUHU216HW,2013-12-15 14:57:00,
2013-12-15 07:02:00,37.8,28.5,30.36,North,0,0.0,0.0,69,0.00,,,0.00,WUHU216HW,2013-12-15 15:02:00,
2013-12-15 07:07:00,37.8,28.5,30.36,North,0,0.0,0.0,69,0.00,,,0.00,WUHU216HW,2013-12-15 15:07:00,
2013-12-15 07:12:00,37.8,28.5,30.36,North,0,0.0,0.0,69,0.00,,,0.00,WUHU216HW,2013-12-15 15:12:00,
2013-12-15 07:19:00,37.6,28.5,30.36,North,0,0.0,0.0,69,0.00,,,0.00,WUHU216HW,2013-12-15 15:19:00,
2013-12-15 07:24:00,37.6,28.5,30.36,North,0,0.0,0.0,69,0.00,,,0.00,WUHU216HW,2013-12-15 15:24:00,
2013-12-15 07:29:00,37.6,28.5,30.36,North,0,0.0,0.0,69,0.00,,,0.00,WUHU216HW,2013-12-15 15:29:00,
2013-12-15 12:56:00,54.0,34.1,30.32,SSE,158,4.3,4.3,47,0.00,,,0.00,WUHU216HW,2013-12-15 20:56:00,
2013-12-15 13:01:00,54.0,34.1,30.32,SSE,158,4.3,4.3,47,0.00,,,0.00,WUHU216HW,2013-12-15 21:01:00,
2013-12-15 13:06:00,54.0,34.1,30.32,SSE,158,4.3,4.3,47,0.00,,,0.00,WUHU216HW,2013-12-15 21:06:00,
2013-12-15 15:23:00,53.8,39.3,30.33,WNW,293,2.5,2.5,58,0.00,,,0.00,WUHU216HW,2013-12-15 23:23:00,
2013-12-15 15:28:00,53.6,39.3,30.34,West,270,2.5,2.5,58,0.00,,,0.00,WUHU216HW,2013-12-15 23:28:00,
2013-12-15 15:33:00,53.1,39.2,30.33,NW,315,0.4,2.5,59,0.00,,,0.00,WUHU216HW,2013-12-15 23:33:00,
2013-12-15 15:38:00,53.1,39.2,30.34,NW,315,0.4,2.5,59,0.00,,,0.00,WUHU216HW,2013-12-15 23:38:00,
2013-12-15 15:43:00,53.1,39.2,30.34,NW,315,0.4,0.4,59,0.00,,,0.00,WUHU216HW,2013-12-15 23:43:00,
2013-12-15 15:48:00,53.1,39.2,30.34,NW,315,0.4,0.4,59,0.00,,,0.00,WUHU216HW,2013-12-15 23:48:00,
2013-12-15 18:01:00,45.0,36.8,30.35,NNW,338,1.1,1.1,73,0.00,,,0.00,WUHU216HW,2013-12-16 02:01:00,
2013-12-15 18:06:00,45.0,36.8,30.34,NNW,338,1.1,1.1,73,0.00,,,0.00,WUHU216HW,2013-12-16 02:06:00,
2013-12-15 18:11:00,45.0,36.8,30.34,NNW,338,1.1,1.1,73,0.00,,,0.00,WUHU216HW,2013-12-16 02:11:00,
2013-12-15 18:16:00,45.0,36.8,30.34,NNW,338,1.1,1.1,73,0.00,,,0.00,WUHU216HW,2013-12-16 02:16:00,
2013-12-15 19:26:00,40.3,33.3,30.36,East,90,0.9,0.9,76,0.00,,,0.00,WUHU216HW,2013-12-16 03:26:00,
2013-12-15 19:31:00,40.0,32.9,30.36,ESE,113,1.3,1.3,76,0.00,,,0.00,WUHU216HW,2013-12-16 03:31:00,
2013-12-15 19:36:00,39.6,33.3,30.36,ESE,113,1.8,1.8,78,0.00,,,0.00,WUHU216HW,2013-12-16 03:36:00,
2013-12-15 19:41:00,39.6,33.3,30.36,ESE,113,1.8,1.8,78,0.00,,,0.00,WUHU216HW,2013-12-16 03:41:00,
2013-12-15 19:46:00,39.6,33.3,30.36,ESE,113,1.8,1.8,78,0.00,,,0.00,WUHU216HW,2013-12-16 03:46:00,
2013-12-15 19:51:00,39.6,33.3,30.36,ESE,113,1.8,1.8,78,0.00,,,0.00,WUHU216HW,2013-12-16 03:51:00,